Time;durP1;ratioP1;P1;durP2;ratioP2;P2;SDS_P1;SDS_P2;PMS_P1;PMS_P2;Temp;Humidity;BMP_temperature;BMP_pressure;BME280_temperature;BME280_humidity;BME280_pressure;Samples;Min_cycle;Max_cycle;Signal;HPM_P1;HPM_P2
2022/04/02 00:02:25;;;;;;;2.33;1.55;;;3.40;64.40;;;;;;5054350;28;20044;-31
2022/04/02 00:04:51;;;;;;;2.13;1.60;;;3.40;64.60;;;;;;5055642;28;20496;-30
2022/04/02 00:07:16;;;;;;;3.42;1.90;;;3.40;64.60;;;;;;5055656;28;20434;-33
2022/04/02 00:09:43;;;;;;;2.67;1.73;;;3.40;64.60;;;;;;5055628;28;20021;-33
2022/04/02 00:12:08;;;;;;;3.10;1.77;;;3.40;64.70;;;;;;5055822;28;20017;-35
2022/04/02 00:14:34;;;;;;;3.20;1.70;;;3.40;65.40;;;;;;5055598;28;20496;-32
2022/04/02 00:17:00;;;;;;;3.10;1.67;;;3.40;64.80;;;;;;5055437;28;20028;-33
2022/04/02 00:19:26;;;;;;;2.90;1.80;;;3.40;64.80;;;;;;5055433;28;20036;-31
2022/04/02 00:21:51;;;;;;;2.78;1.88;;;3.40;64.90;;;;;;5055327;28;20027;-30
2022/04/02 00:24:17;;;;;;;3.08;1.60;;;3.40;64.90;;;;;;5055549;28;20461;-31
2022/04/02 00:26:42;;;;;;;1.98;1.40;;;3.40;64.90;;;;;;5055278;28;20021;-30
2022/04/02 00:29:11;;;;;;;2.15;1.80;;;3.40;65.00;;;;;;5055426;28;20018;-30
2022/04/02 00:31:37;;;;;;;2.50;1.50;;;3.40;65.00;;;;;;5055432;28;20052;-29
2022/04/02 00:34:02;;;;;;;2.95;1.60;;;3.40;65.10;;;;;;5055130;28;20436;-30
2022/04/02 00:36:28;;;;;;;2.80;1.80;;;3.40;65.10;;;;;;5055124;28;20021;-32
2022/04/02 00:38:54;;;;;;;2.83;1.58;;;3.40;65.10;;;;;;5055101;28;20026;-30
2022/04/02 00:41:20;;;;;;;3.92;1.70;;;3.40;65.10;;;;;;5055213;28;20025;-31
2022/04/02 00:43:57;;;;;;;2.25;1.70;;;3.30;64.90;;;;;;5055025;28;20453;-29
2022/04/02 00:46:23;;;;;;;1.80;1.60;;;3.40;65.00;;;;;;5054912;28;20519;-29
2022/04/02 00:48:50;;;;;;;2.22;1.67;;;3.30;65.10;;;;;;5054925;28;20389;-29
2022/04/02 00:51:18;;;;;;;2.15;1.55;;;3.30;65.10;;;;;;5055056;28;20024;-29
2022/04/02 00:53:47;;;;;;;2.53;1.60;;;3.30;64.90;;;;;;5055036;28;20025;-30
2022/04/02 00:56:14;;;;;;;2.35;1.80;;;3.30;65.00;;;;;;5053915;28;20492;-33
2022/04/02 00:58:40;;;;;;;2.10;1.30;;;3.30;65.00;;;;;;5053323;28;20041;-32
2022/04/02 01:01:06;;;;;;;2.30;1.70;;;3.30;65.10;;;;;;5054590;28;20150;-31
2022/04/02 01:03:32;;;;;;;2.30;1.50;;;3.20;64.90;;;;;;5054652;28;20049;-29
2022/04/02 01:05:58;;;;;;;4.53;1.75;;;3.20;65.10;;;;;;5054488;28;20027;-30
2022/04/02 01:08:24;;;;;;;2.58;1.83;;;3.20;64.90;;;;;;5054683;28;20100;-32
2022/04/02 01:10:49;;;;;;;1.83;1.40;;;3.20;64.90;;;;;;5054471;28;20060;-30
2022/04/02 01:13:16;;;;;;;2.50;1.70;;;3.20;64.80;;;;;;5054451;28;20139;-30
2022/04/02 01:15:42;;;;;;;2.75;1.80;;;3.20;65.00;;;;;;5054424;28;20017;-30
2022/04/02 01:18:08;;;;;;;2.15;1.48;;;3.20;65.10;;;;;;5054592;28;20079;-29
2022/04/02 01:20:34;;;;;;;2.20;1.58;;;3.20;65.10;;;;;;5054444;28;20067;-30
2022/04/02 01:23:00;;;;;;;2.47;1.77;;;3.20;65.10;;;;;;5054156;28;20100;-31
2022/04/02 01:25:32;;;;;;;2.38;1.67;;;3.20;65.10;;;;;;5054294;28;20020;-30
2022/04/02 01:28:01;;;;;;;4.07;1.90;;;3.20;65.00;;;;;;5054111;28;20013;-30
2022/04/02 01:30:27;;;;;;;2.35;1.80;;;3.20;64.90;;;;;;5054027;28;20025;-30
2022/04/02 01:32:53;;;;;;;2.70;1.80;;;3.20;64.70;;;;;;5053876;28;20385;-30
2022/04/02 01:35:22;;;;;;;5.55;1.80;;;3.20;64.90;;;;;;5054273;28;20020;-32
2022/04/02 01:37:49;;;;;;;3.60;1.40;;;3.20;64.90;;;;;;5053920;28;20021;-32
2022/04/02 01:40:14;;;;;;;2.00;1.33;;;3.20;65.00;;;;;;5054148;28;20147;-31
2022/04/02 01:42:40;;;;;;;3.00;1.67;;;3.20;65.20;;;;;;5053908;28;20207;-32
2022/04/02 01:45:06;;;;;;;2.97;1.60;;;3.20;65.20;;;;;;5053851;28;20033;-30
2022/04/02 01:47:32;;;;;;;1.63;1.30;;;3.20;64.90;;;;;;5053845;28;20028;-30
2022/04/02 01:49:58;;;;;;;2.60;1.50;;;3.20;65.00;;;;;;5053728;28;20362;-33
2022/04/02 01:52:23;;;;;;;2.83;1.58;;;3.20;64.90;;;;;;5053725;28;20361;-38
2022/04/02 01:54:49;;;;;;;3.13;1.60;;;3.20;65.50;;;;;;5053514;28;20024;-35
2022/04/02 01:57:16;;;;;;;1.80;1.40;;;3.20;64.90;;;;;;5053648;28;20550;-31
2022/04/02 01:59:44;;;;;;;3.03;1.60;;;3.20;65.00;;;;;;5053400;28;20037;-32
2022/04/02 02:02:10;;;;;;;2.22;1.63;;;3.20;65.10;;;;;;5053721;28;20101;-30
2022/04/02 02:04:37;;;;;;;4.15;1.73;;;3.20;65.10;;;;;;5053361;28;20075;-32
2022/04/02 02:07:04;;;;;;;1.77;1.30;;;3.20;65.00;;;;;;5052013;28;20036;-33
2022/04/02 02:09:30;;;;;;;2.95;1.75;;;3.20;64.90;;;;;;5053387;28;20535;-30
2022/04/02 02:11:56;;;;;;;2.30;1.60;;;3.20;64.90;;;;;;5053255;28;20032;-30
2022/04/02 02:14:22;;;;;;;2.60;1.52;;;3.20;65.10;;;;;;5053514;28;20036;-34
2022/04/02 02:16:48;;;;;;;2.10;1.60;;;3.20;65.20;;;;;;5052754;28;20454;-30
2022/04/02 02:19:13;;;;;;;3.05;1.80;;;3.20;65.20;;;;;;5053195;28;20033;-36
2022/04/02 02:21:39;;;;;;;2.10;1.48;;;3.20;65.20;;;;;;5053228;28;20033;-33
2022/04/02 02:24:05;;;;;;;5.13;1.60;;;3.10;65.10;;;;;;5053028;28;20053;-30
2022/04/02 02:26:30;;;;;;;1.42;1.33;;;3.10;65.30;;;;;;5053286;28;20099;-31
2022/04/02 02:28:56;;;;;;;2.20;1.70;;;3.10;65.40;;;;;;5052982;28;20033;-30
2022/04/02 02:31:21;;;;;;;4.30;1.73;;;3.10;65.30;;;;;;5052982;28;20495;-30
2022/04/02 02:36:32;;;;;;;3.15;1.77;;;3.00;65.50;;;;;;5052815;28;20456;-31
2022/04/02 02:38:58;;;;;;;3.22;1.55;;;3.00;65.40;;;;;;5052729;28;20020;-31
2022/04/02 02:41:24;;;;;;;3.22;1.75;;;3.00;65.50;;;;;;5052770;28;20155;-29
2022/04/02 02:43:49;;;;;;;2.28;1.55;;;2.90;65.60;;;;;;5052732;28;20028;-30
2022/04/02 02:46:17;;;;;;;2.08;1.58;;;3.00;65.80;;;;;;5052699;28;20096;-31
2022/04/02 02:48:44;;;;;;;1.73;1.42;;;2.90;65.70;;;;;;5052924;28;20079;-29
2022/04/02 02:51:09;;;;;;;1.80;1.40;;;2.90;65.60;;;;;;5052899;28;20413;-30
2022/04/02 02:53:35;;;;;;;2.67;1.70;;;2.90;65.70;;;;;;5052506;28;20032;-30
2022/04/02 02:56:00;;;;;;;2.00;1.60;;;2.90;65.80;;;;;;5052658;28;20021;-30
2022/04/02 02:58:26;;;;;;;3.25;1.42;;;2.90;65.80;;;;;;5052478;28;20025;-31
2022/04/02 03:00:52;;;;;;;2.80;1.75;;;2.90;65.80;;;;;;5051205;28;20122;-31
2022/04/02 03:03:17;;;;;;;1.70;1.27;;;2.90;65.80;;;;;;5052544;28;20025;-34
2022/04/02 03:05:43;;;;;;;2.80;1.60;;;2.90;65.80;;;;;;5052545;28;20035;-30
2022/04/02 03:08:08;;;;;;;1.85;1.40;;;2.90;65.80;;;;;;5052582;28;20033;-29
2022/04/02 03:10:35;;;;;;;2.20;1.60;;;2.90;65.90;;;;;;5052559;28;20032;-31
2022/04/02 03:13:00;;;;;;;4.10;1.48;;;2.90;66.00;;;;;;5052464;28;20151;-33
2022/04/02 03:15:27;;;;;;;3.38;1.83;;;2.90;66.00;;;;;;5052518;28;20108;-31
2022/04/02 03:17:53;;;;;;;3.33;1.70;;;2.80;66.00;;;;;;5052519;28;20495;-30
2022/04/02 03:20:21;;;;;;;2.42;1.38;;;2.80;66.00;;;;;;5052393;28;20132;-30
2022/04/02 03:22:50;;;;;;;1.95;1.40;;;2.80;66.10;;;;;;5052472;28;20037;-32
2022/04/02 03:25:18;;;;;;;2.08;1.30;;;2.80;66.20;;;;;;5052415;28;20029;-30
2022/04/02 03:27:44;;;;;;;2.50;1.50;;;2.80;66.90;;;;;;5052470;28;20481;-29
2022/04/02 03:30:12;;;;;;;2.90;1.60;;;2.80;66.40;;;;;;5055025;28;20132;-30
2022/04/02 03:32:38;;;;;;;3.22;1.67;;;2.80;66.30;;;;;;5056127;28;20021;-30
2022/04/02 03:35:06;;;;;;;3.22;1.50;;;2.80;66.40;;;;;;5056384;28;20031;-30
2022/04/02 03:37:36;;;;;;;2.50;1.80;;;2.70;66.40;;;;;;5056183;28;20071;-30
2022/04/02 03:40:07;;;;;;;1.95;1.75;;;2.70;66.40;;;;;;5054858;28;20025;-30
2022/04/02 03:42:37;;;;;;;2.40;1.58;;;2.70;66.50;;;;;;5056251;28;20029;-31
2022/04/02 03:45:04;;;;;;;1.63;1.48;;;2.70;66.60;;;;;;5056151;28;20037;-31
2022/04/02 03:47:31;;;;;;;2.65;1.50;;;2.70;66.70;;;;;;5056019;28;20028;-30
2022/04/02 03:49:57;;;;;;;2.45;1.70;;;2.70;66.70;;;;;;5056351;28;20112;-34
2022/04/02 03:52:24;;;;;;;1.85;1.52;;;2.70;66.80;;;;;;5055987;28;20033;-31
2022/04/02 03:54:50;;;;;;;1.90;1.50;;;2.60;66.80;;;;;;5055940;28;20037;-34
2022/04/02 03:57:16;;;;;;;2.50;1.65;;;2.60;66.80;;;;;;5055840;28;20059;-29
2022/04/02 03:59:43;;;;;;;2.03;1.60;;;2.60;66.80;;;;;;5055678;28;20048;-32
2022/04/02 04:02:09;;;;;;;1.75;1.58;;;2.60;67.00;;;;;;5055933;28;20473;-32
2022/04/02 04:04:36;;;;;;;4.00;1.95;;;2.60;67.00;;;;;;5055737;28;20048;-36
2022/04/02 04:07:02;;;;;;;3.05;1.70;;;2.70;67.00;;;;;;5055717;28;20029;-32
2022/04/02 04:09:28;;;;;;;3.92;2.15;;;2.60;67.00;;;;;;5055578;28;20052;-30
2022/04/02 04:11:54;;;;;;;3.63;1.80;;;2.60;66.90;;;;;;5055595;28;20029;-31
2022/04/02 04:14:20;;;;;;;2.97;1.67;;;2.60;66.90;;;;;;5055587;28;20047;-30
2022/04/02 04:16:46;;;;;;;3.22;1.30;;;2.60;66.90;;;;;;5055841;28;20025;-30
2022/04/02 04:19:13;;;;;;;3.15;1.60;;;2.60;67.00;;;;;;5055639;28;20200;-30
2022/04/02 04:21:39;;;;;;;2.47;1.55;;;2.60;67.00;;;;;;5055690;28;20503;-29
2022/04/02 04:24:05;;;;;;;2.75;1.70;;;2.60;67.00;;;;;;5055757;28;20017;-30
2022/04/02 04:26:31;;;;;;;2.83;1.65;;;2.60;67.10;;;;;;5055753;28;20059;-30
2022/04/02 04:28:56;;;;;;;1.70;1.50;;;2.60;67.10;;;;;;5055502;28;20021;-33
2022/04/02 04:31:22;;;;;;;2.58;1.42;;;2.60;67.10;;;;;;5055228;28;20029;-29
2022/04/02 04:33:48;;;;;;;2.45;1.70;;;2.60;67.20;;;;;;5055144;28;20028;-30
2022/04/02 04:36:15;;;;;;;3.03;1.90;;;2.50;67.10;;;;;;5054034;28;20037;-32
2022/04/02 04:38:42;;;;;;;3.25;1.70;;;2.50;67.20;;;;;;5055040;28;20025;-31
2022/04/02 04:41:07;;;;;;;5.18;1.98;;;2.50;67.20;;;;;;5054770;28;20029;-30
2022/04/02 04:43:34;;;;;;;3.25;1.73;;;2.50;67.20;;;;;;5054976;28;20096;-32
2022/04/02 04:46:02;;;;;;;5.15;1.70;;;2.50;67.20;;;;;;5054896;28;20021;-30
2022/04/02 04:48:27;;;;;;;2.65;1.85;;;2.50;67.30;;;;;;5054908;28;20449;-31
2022/04/02 04:50:53;;;;;;;2.67;1.60;;;2.50;67.30;;;;;;5054927;28;20043;-32
2022/04/02 04:53:19;;;;;;;3.67;1.83;;;2.50;67.30;;;;;;5053520;28;20027;-31
2022/04/02 04:55:44;;;;;;;3.75;1.80;;;2.50;67.30;;;;;;5054789;28;20059;-29
2022/04/02 04:58:10;;;;;;;3.08;1.52;;;2.50;67.30;;;;;;5054805;28;20048;-30
2022/04/02 05:00:36;;;;;;;2.75;1.70;;;2.50;67.30;;;;;;5054470;28;20072;-30
2022/04/02 05:03:03;;;;;;;2.63;1.60;;;2.50;67.30;;;;;;5053329;28;20128;-31
2022/04/02 05:05:34;;;;;;;5.38;1.75;;;2.60;67.40;;;;;;5054572;28;20374;-31
2022/04/02 05:08:00;;;;;;;2.58;1.70;;;2.50;67.40;;;;;;5054486;28;20029;-34
2022/04/02 05:10:27;;;;;;;3.33;1.80;;;2.60;67.40;;;;;;5054500;28;20111;-34
2022/04/02 05:12:53;;;;;;;4.13;1.92;;;2.50;67.40;;;;;;5054427;28;20112;-30
2022/04/02 05:15:19;;;;;;;4.38;2.10;;;2.50;67.50;;;;;;5054462;28;20118;-35
2022/04/02 05:17:45;;;;;;;2.20;1.80;;;2.50;67.60;;;;;;5054343;28;20025;-31
2022/04/02 05:20:14;;;;;;;3.55;2.15;;;2.60;68.00;;;;;;5054714;28;20437;-33
2022/04/02 05:22:40;;;;;;;4.38;2.20;;;2.50;68.10;;;;;;5054524;28;20021;-34
2022/04/02 05:25:07;;;;;;;4.88;2.30;;;2.50;68.20;;;;;;5054286;28;20508;-31
2022/04/02 05:27:33;;;;;;;6.45;1.95;;;2.50;68.10;;;;;;5054198;28;20028;-31
2022/04/02 05:30:00;;;;;;;4.20;2.28;;;2.50;68.30;;;;;;5054450;28;20025;-36
2022/04/02 05:32:26;;;;;;;3.35;1.75;;;2.50;68.30;;;;;;5054352;28;20032;-30
2022/04/02 05:34:52;;;;;;;5.00;2.40;;;2.50;68.50;;;;;;5054079;28;20083;-33
2022/04/02 05:37:17;;;;;;;4.40;2.05;;;2.50;68.80;;;;;;5054083;28;20381;-32
2022/04/02 05:39:43;;;;;;;3.40;2.08;;;2.40;68.80;;;;;;5054211;28;20082;-31
2022/04/02 05:42:08;;;;;;;3.58;2.00;;;2.40;68.90;;;;;;5053952;28;20477;-30
2022/04/02 05:47:56;;;;;;;4.38;2.40;;;2.40;69.00;;;;;;5054205;28;20086;-32
2022/04/02 05:50:24;;;;;;;3.05;2.20;;;2.30;69.00;;;;;;5053908;28;20029;-36
2022/04/02 05:52:50;;;;;;;4.20;2.10;;;2.30;69.20;;;;;;5053279;28;20433;-33
2022/04/02 05:55:17;;;;;;;3.20;2.20;;;2.30;69.30;;;;;;5053694;28;20029;-30
2022/04/02 05:57:44;;;;;;;2.95;2.28;;;2.30;69.30;;;;;;5053613;28;20154;-29
2022/04/02 06:00:11;;;;;;;3.33;2.03;;;2.30;69.30;;;;;;5053364;28;20072;-30
2022/04/02 06:02:37;;;;;;;5.28;2.10;;;2.30;69.40;;;;;;5053503;28;20032;-33
2022/04/02 06:05:03;;;;;;;2.78;1.50;;;2.30;69.40;;;;;;5053530;28;20095;-32
2022/04/02 06:07:30;;;;;;;2.42;1.90;;;2.30;69.40;;;;;;5053460;28;20108;-35
2022/04/02 06:09:57;;;;;;;4.38;1.98;;;2.30;69.50;;;;;;5053737;28;20103;-31
2022/04/02 06:12:22;;;;;;;4.35;1.92;;;2.40;69.50;;;;;;5053376;28;20036;-31
2022/04/02 06:14:48;;;;;;;5.45;1.95;;;2.40;69.70;;;;;;5053565;28;20477;-37
2022/04/02 06:17:14;;;;;;;3.90;1.83;;;2.40;69.60;;;;;;5053259;28;20032;-35
2022/04/02 06:19:39;;;;;;;3.20;2.17;;;2.40;69.70;;;;;;5053327;28;20079;-37
2022/04/02 06:22:07;;;;;;;5.18;2.20;;;2.40;69.80;;;;;;5053086;28;20039;-35
2022/04/02 06:24:34;;;;;;;3.58;2.05;;;2.40;69.80;;;;;;5053338;28;20032;-33
2022/04/02 06:27:00;;;;;;;5.65;2.38;;;2.40;69.70;;;;;;5053158;28;20031;-32
2022/04/02 06:29:25;;;;;;;4.63;2.10;;;2.50;70.00;;;;;;5053157;28;20552;-36
2022/04/02 06:31:51;;;;;;;3.38;1.92;;;2.50;69.90;;;;;;5053000;28;20116;-32
2022/04/02 06:34:17;;;;;;;4.03;2.08;;;2.50;69.80;;;;;;5053052;28;20029;-31
2022/04/02 06:36:42;;;;;;;3.67;2.22;;;2.50;69.80;;;;;;5052991;28;20071;-31
2022/04/02 06:39:08;;;;;;;6.00;2.33;;;2.60;69.80;;;;;;5052969;28;20113;-31
2022/04/02 06:41:33;;;;;;;4.72;2.72;;;2.60;69.90;;;;;;5052940;28;20024;-34
2022/04/02 06:43:59;;;;;;;2.72;2.03;;;2.70;69.90;;;;;;5051684;28;20025;-32
2022/04/02 06:46:25;;;;;;;3.40;2.13;;;2.70;69.80;;;;;;5052878;28;20028;-30
2022/04/02 06:48:50;;;;;;;3.92;2.20;;;2.70;69.80;;;;;;5052957;28;20025;-30
2022/04/02 06:51:17;;;;;;;4.18;2.53;;;2.80;69.90;;;;;;5052766;28;20482;-29
2022/04/02 06:53:43;;;;;;;5.43;2.63;;;2.90;70.00;;;;;;5053087;28;20040;-29
2022/04/02 06:56:08;;;;;;;5.53;2.40;;;2.90;69.90;;;;;;5052699;28;20029;-31
2022/04/02 06:58:38;;;;;;;2.30;2.08;;;2.90;69.90;;;;;;5052605;28;20057;-31
2022/04/02 07:01:04;;;;;;;4.20;2.75;;;3.00;69.80;;;;;;5052927;28;20427;-29
2022/04/02 07:03:30;;;;;;;3.20;1.88;;;3.10;69.90;;;;;;5055459;28;20029;-31
2022/04/02 07:05:55;;;;;;;4.07;2.35;;;3.20;69.80;;;;;;5059368;28;20432;-32
2022/04/02 07:08:21;;;;;;;3.67;2.30;;;3.30;70.20;;;;;;5059287;28;20473;-31
2022/04/02 07:10:46;;;;;;;5.25;2.42;;;3.40;69.50;;;;;;5059340;28;20029;-35
2022/04/02 07:13:12;;;;;;;4.68;2.65;;;3.40;69.30;;;;;;5059258;28;20021;-30
2022/04/02 07:15:40;;;;;;;2.90;2.17;;;3.50;69.30;;;;;;5059546;28;20037;-32
2022/04/02 07:18:08;;;;;;;4.45;2.28;;;3.50;69.20;;;;;;5059249;28;20060;-34
2022/04/02 07:20:35;;;;;;;5.20;2.63;;;3.50;69.10;;;;;;5059206;28;20037;-31
2022/04/02 07:23:02;;;;;;;3.53;2.00;;;3.50;69.10;;;;;;5059329;28;20033;-34
2022/04/02 07:25:34;;;;;;;3.08;2.22;;;3.50;69.10;;;;;;5059577;28;20420;-30
2022/04/02 07:28:01;;;;;;;3.67;2.17;;;3.60;69.20;;;;;;5059339;28;20036;-31
2022/04/02 07:30:27;;;;;;;4.97;2.22;;;3.70;69.10;;;;;;5059313;28;20053;-31
2022/04/02 07:32:52;;;;;;;3.22;2.30;;;3.80;69.00;;;;;;5059138;28;20032;-30
2022/04/02 07:35:18;;;;;;;4.70;2.45;;;3.80;68.70;;;;;;5059275;28;20033;-33
2022/04/02 07:38:05;;;;;;;5.35;2.90;;;3.80;68.70;;;;;;5059222;28;20159;-31
2022/04/02 07:40:40;;;;;;;4.97;2.60;;;3.90;68.60;;;;;;5059118;28;20037;-30
2022/04/02 07:43:20;;;;;;;4.30;2.53;;;3.90;68.70;;;;;;5059153;28;20112;-35
2022/04/02 07:46:10;;;;;;;4.80;2.40;;;3.90;68.70;;;;;;5059006;28;20037;-31
2022/04/02 07:48:39;;;;;;;4.93;2.72;;;3.90;68.70;;;;;;5059116;28;20032;-30
2022/04/02 07:51:12;;;;;;;5.13;2.65;;;4.00;69.20;;;;;;5059063;28;20440;-35
2022/04/02 07:53:46;;;;;;;4.35;2.20;;;4.00;68.50;;;;;;5059059;28;20037;-30
2022/04/02 07:56:19;;;;;;;4.18;2.70;;;4.00;68.50;;;;;;5059088;28;20112;-31
2022/04/02 07:58:50;;;;;;;2.83;2.20;;;4.10;68.50;;;;;;5059133;28;20079;-29
2022/04/02 08:01:18;;;;;;;5.40;2.75;;;4.10;68.50;;;;;;5057610;28;20036;-31
2022/04/02 08:03:45;;;;;;;5.57;2.60;;;4.20;68.20;;;;;;5058988;28;20021;-31
2022/04/02 08:06:15;;;;;;;4.47;2.55;;;4.10;68.20;;;;;;5059171;28;20397;-31
2022/04/02 08:08:42;;;;;;;3.40;2.20;;;4.20;68.20;;;;;;5058937;28;20040;-36
2022/04/02 08:11:09;;;;;;;3.35;2.30;;;4.20;68.20;;;;;;5059178;28;20392;-30
2022/04/02 08:13:37;;;;;;;4.03;2.38;;;4.20;68.30;;;;;;5059002;28;20056;-30
2022/04/02 08:16:03;;;;;;;5.32;2.15;;;4.30;68.20;;;;;;5055490;28;20025;-32
2022/04/02 08:18:29;;;;;;;3.80;2.60;;;4.30;68.20;;;;;;5055717;28;20043;-33
2022/04/02 08:20:55;;;;;;;5.15;2.30;;;4.40;68.00;;;;;;5055528;28;20463;-30
2022/04/02 08:23:21;;;;;;;3.30;2.38;;;4.50;68.10;;;;;;5055592;28;20032;-32
2022/04/02 08:25:58;;;;;;;4.13;2.42;;;4.60;68.00;;;;;;5055531;28;20056;-30
2022/04/02 08:28:48;;;;;;;3.47;2.40;;;4.60;67.70;;;;;;5054220;28;20478;-30
2022/04/02 08:31:31;;;;;;;2.83;2.30;;;4.70;67.60;;;;;;5055401;28;20037;-30
2022/04/02 08:34:16;;;;;;;3.13;2.35;;;4.80;67.70;;;;;;5055506;28;20025;-34
2022/04/02 08:37:17;;;;;;;3.28;2.30;;;4.90;67.20;;;;;;5055305;28;20036;-30
2022/04/02 08:40:02;;;;;;;4.28;2.42;;;4.90;67.10;;;;;;5016487;28;20042;-31
2022/04/02 08:43:00;;;;;;;4.32;2.10;;;5.10;67.30;;;;;;5053809;28;20047;-30
2022/04/02 08:45:37;;;;;;;3.60;2.20;;;5.30;67.20;;;;;;5055216;28;20037;-32
2022/04/02 08:48:27;;;;;;;4.93;3.00;;;5.40;66.90;;;;;;5055126;28;20048;-34
2022/04/02 08:51:14;;;;;;;4.70;2.65;;;5.60;66.10;;;;;;5054994;28;20041;-30
2022/04/02 08:53:52;;;;;;;7.07;2.58;;;5.70;65.70;;;;;;5055224;28;20036;-30
2022/04/02 08:56:24;;;;;;;3.70;2.30;;;5.80;65.60;;;;;;5054994;28;20029;-29
2022/04/02 08:59:05;;;;;;;4.30;2.17;;;5.90;65.70;;;;;;5054943;28;20037;-30
2022/04/02 09:02:09;;;;;;;3.45;2.22;;;5.90;65.40;;;;;;5054816;28;20028;-32
2022/04/02 09:04:59;;;;;;;2.80;2.20;;;6.10;64.90;;;;;;5054880;28;20025;-30
2022/04/02 09:07:43;;;;;;;2.05;1.60;;;6.20;65.10;;;;;;5054974;28;20021;-29
2022/04/02 09:10:48;;;;;;;2.65;1.75;;;6.30;66.60;;;;;;5054474;28;20033;-32
2022/04/02 09:13:36;;;;;;;2.05;1.80;;;6.50;65.80;;;;;;5038477;28;20103;-30
2022/04/02 09:16:07;;;;;;;3.33;2.45;;;6.70;65.60;;;;;;5054403;28;20040;-31
2022/04/02 09:18:46;;;;;;;4.95;2.85;;;6.60;63.20;;;;;;5054581;28;20489;-30
2022/04/02 09:21:29;;;;;;;4.68;3.08;;;6.50;62.90;;;;;;5052923;28;20035;-30
2022/04/02 09:24:11;;;;;;;3.90;2.53;;;6.20;62.40;;;;;;5054554;28;20025;-31
2022/04/02 09:27:19;;;;;;;4.43;2.90;;;6.00;62.50;;;;;;5053173;28;20021;-31
2022/04/02 09:30:10;;;;;;;5.72;2.85;;;5.90;63.10;;;;;;5043875;28;20041;-31
2022/04/02 09:33:06;;;;;;;4.88;2.92;;;5.80;63.00;;;;;;5054087;28;20094;-34
2022/04/02 09:35:40;;;;;;;4.20;2.88;;;5.70;63.30;;;;;;5054062;28;20028;-32
2022/04/02 09:38:27;;;;;;;6.47;3.15;;;5.70;63.60;;;;;;5054286;28;20037;-32
2022/04/02 09:41:18;;;;;;;6.47;2.95;;;5.70;62.80;;;;;;5053844;28;20035;-32
2022/04/02 09:43:58;;;;;;;6.47;2.78;;;5.60;62.40;;;;;;5054171;28;20489;-31
2022/04/02 09:46:43;;;;;;;3.42;2.58;;;5.60;63.10;;;;;;5053735;28;20048;-33
2022/04/02 09:49:41;;;;;;;5.35;2.78;;;5.70;62.60;;;;;;5053599;28;20028;-31
2022/04/02 09:52:08;;;;;;;4.70;2.55;;;5.80;61.80;;;;;;5053958;28;20477;-31
2022/04/02 09:54:42;;;;;;;3.72;2.10;;;5.80;62.10;;;;;;5053777;28;20044;-31
2022/04/02 09:57:34;;;;;;;4.97;2.42;;;5.90;62.20;;;;;;5053652;28;20044;-30
2022/04/02 10:00:04;;;;;;;3.47;2.33;;;6.10;62.10;;;;;;5053566;28;20414;-31
2022/04/02 10:02:41;;;;;;;5.38;2.33;;;6.20;61.20;;;;;;5053482;28;20021;-30
2022/04/02 10:05:08;;;;;;;3.03;1.98;;;6.20;60.20;;;;;;5052279;28;20496;-29
2022/04/02 10:07:42;;;;;;;2.00;1.80;;;6.30;60.80;;;;;;5053535;28;20427;-30
2022/04/02 10:10:08;;;;;;;3.28;2.00;;;6.30;60.60;;;;;;5053512;28;20142;-31
2022/04/02 10:12:37;;;;;;;2.95;1.90;;;6.40;60.20;;;;;;5053687;28;20024;-31
2022/04/02 10:15:03;;;;;;;2.60;1.90;;;6.30;59.20;;;;;;5053446;28;20389;-31
2022/04/02 10:17:31;;;;;;;4.18;2.05;;;6.40;59.00;;;;;;5053310;28;20039;-31
2022/04/02 10:19:58;;;;;;;3.17;1.85;;;6.40;57.90;;;;;;5052024;28;20044;-30
2022/04/02 10:22:42;;;;;;;3.67;1.75;;;6.30;57.90;;;;;;5053554;28;20021;-30
2022/04/02 10:25:11;;;;;;;1.90;1.60;;;6.30;56.80;;;;;;5053566;28;20048;-30
2022/04/02 10:27:39;;;;;;;3.03;2.03;;;6.40;58.00;;;;;;5051970;28;20386;-31
2022/04/02 10:30:10;;;;;;;3.78;1.90;;;6.40;56.30;;;;;;5053183;28;20032;-30
2022/04/02 10:32:39;;;;;;;4.07;1.80;;;6.30;56.00;;;;;;5053183;28;20028;-32
2022/04/02 10:35:07;;;;;;;2.47;1.40;;;6.40;55.90;;;;;;5053295;28;20028;-29
2022/04/02 10:37:55;;;;;;;5.40;1.90;;;6.40;56.40;;;;;;5052699;28;20033;-30
2022/04/02 10:40:24;;;;;;;2.45;1.63;;;6.60;56.40;;;;;;5053135;28;20056;-32
2022/04/02 10:42:52;;;;;;;1.95;1.48;;;6.80;56.50;;;;;;5051518;28;20032;-32
2022/04/02 10:45:20;;;;;;;4.45;1.83;;;6.90;53.70;;;;;;5053152;28;20476;-32
2022/04/02 10:48:02;;;;;;;3.22;1.65;;;6.90;52.70;;;;;;5053131;28;20016;-34
2022/04/02 10:50:29;;;;;;;2.17;1.40;;;6.80;53.00;;;;;;5052818;28;20048;-32
2022/04/02 10:53:01;;;;;;;2.25;1.40;;;6.80;54.10;;;;;;5052605;28;20021;-31
2022/04/02 10:55:27;;;;;;;3.92;2.05;;;6.90;53.90;;;;;;5053338;28;20473;-37
2022/04/02 10:57:55;;;;;;;4.32;1.50;;;6.90;54.20;;;;;;5052635;28;20021;-31
2022/04/02 11:00:21;;;;;;;1.63;1.10;;;6.90;53.40;;;;;;5052653;28;20057;-34
2022/04/02 11:02:49;;;;;;;1.90;1.10;;;7.00;53.30;;;;;;5052665;28;20401;-31
2022/04/02 11:05:17;;;;;;;1.52;1.20;;;7.10;53.40;;;;;;5052982;28;20021;-30
2022/04/02 11:07:45;;;;;;;3.05;1.40;;;7.20;53.70;;;;;;5052972;28;20101;-29
2022/04/02 11:10:16;;;;;;;3.15;1.58;;;7.30;53.10;;;;;;5052719;28;20024;-32
2022/04/02 11:12:44;;;;;;;1.70;1.23;;;7.40;52.90;;;;;;5052557;28;20029;-32
2022/04/02 11:15:19;;;;;;;2.75;1.50;;;7.40;52.30;;;;;;5052563;28;20029;-29
2022/04/02 11:17:52;;;;;;;2.95;1.45;;;7.40;52.90;;;;;;5051265;28;20090;-29
2022/04/02 11:20:20;;;;;;;5.87;1.63;;;7.40;52.20;;;;;;5052886;28;20453;-30
2022/04/02 11:22:52;;;;;;;2.25;1.40;;;7.30;52.20;;;;;;5052474;28;20119;-30
2022/04/02 11:25:32;;;;;;;2.92;1.63;;;7.20;53.30;;;;;;5053049;28;20384;-34
2022/04/02 11:28:23;;;;;;;2.17;1.50;;;7.10;53.00;;;;;;5052435;28;20105;-30
2022/04/02 11:30:51;;;;;;;2.88;1.60;;;7.10;52.00;;;;;;5052790;28;20063;-30
2022/04/02 11:33:20;;;;;;;2.83;1.70;;;7.20;51.80;;;;;;5052467;28;20028;-31
2022/04/02 11:35:52;;;;;;;4.25;1.50;;;7.20;52.00;;;;;;5052745;28;20556;-31
2022/04/02 11:38:20;;;;;;;2.17;1.35;;;7.20;50.60;;;;;;5052433;28;20108;-34
2022/04/02 11:41:00;;;;;;;2.33;1.70;;;7.20;51.70;;;;;;5052716;28;20025;-31
2022/04/02 11:43:35;;;;;;;1.65;1.40;;;7.20;51.50;;;;;;5052516;28;20044;-30
2022/04/02 11:46:04;;;;;;;1.95;1.30;;;7.30;52.90;;;;;;5052469;28;20025;-31
2022/04/02 11:48:33;;;;;;;2.17;1.33;;;7.40;52.30;;;;;;5052655;28;20017;-32
2022/04/02 11:51:19;;;;;;;1.65;1.10;;;7.50;49.30;;;;;;5054811;28;20409;-30
2022/04/02 11:53:45;;;;;;;2.13;1.38;;;7.50;49.20;;;;;;5056364;28;20028;-31
2022/04/02 11:56:24;;;;;;;3.60;1.40;;;7.50;50.20;;;;;;5056146;28;20389;-32
2022/04/02 11:58:51;;;;;;;2.40;1.55;;;7.50;50.90;;;;;;5054551;28;20041;-31
2022/04/02 12:01:20;;;;;;;2.25;1.40;;;7.50;51.30;;;;;;5056054;28;20480;-31
2022/04/02 12:04:04;;;;;;;3.75;1.70;;;7.40;50.60;;;;;;5055845;28;20055;-31
2022/04/02 12:06:34;;;;;;;2.85;1.55;;;7.30;51.00;;;;;;5056099;28;20376;-31
2022/04/02 12:09:21;;;;;;;1.92;1.35;;;7.20;51.90;;;;;;5056064;28;20465;-30
2022/04/02 12:11:55;;;;;;;3.58;1.50;;;7.20;52.40;;;;;;5055709;28;20104;-35
2022/04/02 12:14:31;;;;;;;2.65;1.52;;;7.40;52.20;;;;;;5055880;28;20025;-33
2022/04/02 12:17:09;;;;;;;2.55;1.50;;;7.60;52.60;;;;;;5055236;28;20036;-30
2022/04/02 12:19:40;;;;;;;3.65;1.52;;;7.80;52.80;;;;;;5055746;28;20029;-37
2022/04/02 12:22:31;;;;;;;2.92;1.50;;;7.80;52.80;;;;;;5055327;28;20025;-31
2022/04/02 12:25:04;;;;;;;3.65;1.50;;;7.80;51.90;;;;;;5055716;28;20032;-31
2022/04/02 12:27:32;;;;;;;2.25;1.45;;;7.70;52.50;;;;;;5055691;28;20393;-33
2022/04/02 12:30:01;;;;;;;5.68;1.70;;;7.50;52.70;;;;;;5055068;28;20017;-30
2022/04/02 12:32:47;;;;;;;1.90;1.35;;;7.30;53.90;;;;;;5055097;28;20029;-33
2022/04/02 12:35:15;;;;;;;2.55;1.25;;;7.20;54.10;;;;;;5055147;28;20131;-30
2022/04/02 12:37:51;;;;;;;2.47;1.42;;;7.10;54.40;;;;;;5055094;28;20037;-31
2022/04/02 12:40:27;;;;;;;2.05;1.58;;;7.00;54.40;;;;;;5055109;28;20370;-29
2022/04/02 12:42:55;;;;;;;2.88;1.60;;;6.90;54.60;;;;;;5055098;28;20496;-30
2022/04/02 12:45:26;;;;;;;1.98;1.40;;;6.90;55.00;;;;;;5055240;28;20402;-29
2022/04/02 12:47:59;;;;;;;3.20;1.40;;;6.80;54.90;;;;;;5055067;28;20025;-30
2022/04/02 12:50:26;;;;;;;2.63;1.60;;;6.80;55.30;;;;;;5055110;28;20096;-30
2022/04/02 12:52:52;;;;;;;3.80;1.55;;;6.80;56.20;;;;;;5055186;28;20370;-30
2022/04/02 12:55:23;;;;;;;4.32;1.75;;;6.80;56.30;;;;;;5054745;28;20028;-32
2022/04/02 12:57:59;;;;;;;3.92;1.60;;;6.80;56.50;;;;;;5054723;28;20112;-31
2022/04/02 13:00:30;;;;;;;3.03;1.70;;;6.90;56.00;;;;;;5054481;28;20060;-31
2022/04/02 13:03:01;;;;;;;2.42;1.52;;;7.00;55.70;;;;;;5054562;28;20033;-30
2022/04/02 13:05:46;;;;;;;2.40;1.60;;;7.00;55.70;;;;;;5053464;28;20025;-29
2022/04/02 13:08:21;;;;;;;2.35;1.27;;;7.10;54.90;;;;;;5054494;28;20029;-31
2022/04/02 13:10:53;;;;;;;2.65;1.55;;;7.30;54.60;;;;;;5054139;28;20392;-31
2022/04/02 13:13:41;;;;;;;3.28;1.33;;;7.30;54.10;;;;;;5054780;28;20100;-33
2022/04/02 13:16:14;;;;;;;2.67;1.25;;;7.50;54.30;;;;;;5054453;28;20100;-30
2022/04/02 13:21:41;;;;;;;1.80;1.40;;;7.90;52.50;;;;;;5054287;28;20547;-32
2022/04/02 13:24:28;;;;;;;4.32;1.55;;;7.90;52.10;;;;;;5054197;28;20017;-30